sensor_id;sensor_type;location;lat;lon;timestamp;P1;durP1;ratioP1;P2;durP2;ratioP2
40058;SDS011;25763;49.972;8.568;2023-03-01T00:00:11;9.30;;;8.60;;
40058;SDS011;25763;49.972;8.568;2023-03-01T00:02:37;9.10;;;8.50;;
40058;SDS011;25763;49.972;8.568;2023-03-01T00:05:03;9.77;;;9.13;;
40058;SDS011;25763;49.972;8.568;2023-03-01T00:07:29;10.73;;;9.93;;
40058;SDS011;25763;49.972;8.568;2023-03-01T00:09:54;9.82;;;9.18;;
40058;SDS011;25763;49.972;8.568;2023-03-01T00:12:20;8.88;;;8.27;;
40058;SDS011;25763;49.972;8.568;2023-03-01T00:14:45;10.55;;;9.80;;
40058;SDS011;25763;49.972;8.568;2023-03-01T00:17:10;17.20;;;9.43;;
40058;SDS011;25763;49.972;8.568;2023-03-01T00:19:36;10.00;;;9.30;;
40058;SDS011;25763;49.972;8.568;2023-03-01T00:22:01;10.32;;;9.63;;
40058;SDS011;25763;49.972;8.568;2023-03-01T00:24:26;11.02;;;10.32;;
40058;SDS011;25763;49.972;8.568;2023-03-01T00:26:52;10.15;;;9.45;;
40058;SDS011;25763;49.972;8.568;2023-03-01T00:29:20;10.63;;;9.93;;
40058;SDS011;25763;49.972;8.568;2023-03-01T00:31:46;10.32;;;9.25;;
40058;SDS011;25763;49.972;8.568;2023-03-01T00:34:11;9.18;;;8.57;;
40058;SDS011;25763;49.972;8.568;2023-03-01T00:36:37;10.88;;;9.95;;
40058;SDS011;25763;49.972;8.568;2023-03-01T00:39:03;9.50;;;8.68;;
40058;SDS011;25763;49.972;8.568;2023-03-01T00:41:30;10.10;;;9.25;;
40058;SDS011;25763;49.972;8.568;2023-03-01T00:43:56;9.45;;;8.80;;
40058;SDS011;25763;49.972;8.568;2023-03-01T00:46:22;11.07;;;10.10;;
40058;SDS011;25763;49.972;8.568;2023-03-01T00:48:49;10.52;;;9.77;;
40058;SDS011;25763;49.972;8.568;2023-03-01T00:51:16;10.57;;;9.82;;
40058;SDS011;25763;49.972;8.568;2023-03-01T00:53:44;8.38;;;7.88;;
40058;SDS011;25763;49.972;8.568;2023-03-01T00:56:10;10.00;;;9.30;;
40058;SDS011;25763;49.972;8.568;2023-03-01T00:58:37;10.20;;;9.50;;
40058;SDS011;25763;49.972;8.568;2023-03-01T01:01:09;10.60;;;9.90;;
40058;SDS011;25763;49.972;8.568;2023-03-01T01:04:04;9.40;;;8.80;;
40058;SDS011;25763;49.972;8.568;2023-03-01T01:06:30;10.02;;;9.32;;
40058;SDS011;25763;49.972;8.568;2023-03-01T01:09:00;9.55;;;8.95;;
40058;SDS011;25763;49.972;8.568;2023-03-01T01:11:27;9.93;;;9.30;;
40058;SDS011;25763;49.972;8.568;2023-03-01T01:13:54;9.38;;;8.77;;
40058;SDS011;25763;49.972;8.568;2023-03-01T01:16:20;10.25;;;8.95;;
40058;SDS011;25763;49.972;8.568;2023-03-01T01:18:47;10.30;;;9.57;;
40058;SDS011;25763;49.972;8.568;2023-03-01T01:21:13;10.52;;;9.82;;
40058;SDS011;25763;49.972;8.568;2023-03-01T01:23:41;12.35;;;11.25;;
40058;SDS011;25763;49.972;8.568;2023-03-01T01:26:08;10.75;;;9.95;;
40058;SDS011;25763;49.972;8.568;2023-03-01T01:28:36;9.68;;;9.00;;
40058;SDS011;25763;49.972;8.568;2023-03-01T01:31:01;10.07;;;9.30;;
40058;SDS011;25763;49.972;8.568;2023-03-01T01:33:27;9.88;;;9.18;;
40058;SDS011;25763;49.972;8.568;2023-03-01T01:35:53;9.77;;;9.07;;
40058;SDS011;25763;49.972;8.568;2023-03-01T01:38:18;10.35;;;9.68;;
40058;SDS011;25763;49.972;8.568;2023-03-01T01:40:44;9.00;;;8.40;;
40058;SDS011;25763;49.972;8.568;2023-03-01T01:43:16;9.30;;;8.60;;
40058;SDS011;25763;49.972;8.568;2023-03-01T01:45:45;9.90;;;9.10;;
40058;SDS011;25763;49.972;8.568;2023-03-01T01:48:12;9.80;;;8.90;;
40058;SDS011;25763;49.972;8.568;2023-03-01T01:50:42;9.93;;;9.23;;
40058;SDS011;25763;49.972;8.568;2023-03-01T01:53:11;10.25;;;9.55;;
40058;SDS011;25763;49.972;8.568;2023-03-01T01:55:45;10.18;;;9.48;;
40058;SDS011;25763;49.972;8.568;2023-03-01T01:58:13;9.82;;;9.02;;
40058;SDS011;25763;49.972;8.568;2023-03-01T02:00:41;9.18;;;8.57;;
40058;SDS011;25763;49.972;8.568;2023-03-01T02:03:08;9.77;;;9.00;;
40058;SDS011;25763;49.972;8.568;2023-03-01T02:08:12;9.07;;;8.48;;
40058;SDS011;25763;49.972;8.568;2023-03-01T02:10:40;9.02;;;8.43;;
40058;SDS011;25763;49.972;8.568;2023-03-01T02:13:07;10.75;;;9.85;;
40058;SDS011;25763;49.972;8.568;2023-03-01T02:15:33;10.18;;;9.45;;
40058;SDS011;25763;49.972;8.568;2023-03-01T02:18:00;9.75;;;9.02;;
40058;SDS011;25763;49.972;8.568;2023-03-01T02:20:32;9.13;;;8.50;;
40058;SDS011;25763;49.972;8.568;2023-03-01T02:23:37;9.18;;;8.57;;
40058;SDS011;25763;49.972;8.568;2023-03-01T02:28:44;10.05;;;9.07;;
40058;SDS011;25763;49.972;8.568;2023-03-01T02:31:10;10.35;;;9.65;;
40058;SDS011;25763;49.972;8.568;2023-03-01T02:33:59;9.52;;;8.77;;
40058;SDS011;25763;49.972;8.568;2023-03-01T02:36:28;22.02;;;10.07;;
40058;SDS011;25763;49.972;8.568;2023-03-01T02:38:58;10.13;;;9.43;;
40058;SDS011;25763;49.972;8.568;2023-03-01T02:41:26;9.32;;;8.73;;
40058;SDS011;25763;49.972;8.568;2023-03-01T02:43:55;9.15;;;8.55;;
40058;SDS011;25763;49.972;8.568;2023-03-01T02:46:21;9.45;;;8.85;;
40058;SDS011;25763;49.972;8.568;2023-03-01T02:48:52;9.23;;;8.57;;
40058;SDS011;25763;49.972;8.568;2023-03-01T02:53:54;9.85;;;9.15;;
40058;SDS011;25763;49.972;8.568;2023-03-01T02:56:21;9.73;;;8.93;;
40058;SDS011;25763;49.972;8.568;2023-03-01T02:58:46;10.18;;;9.38;;
40058;SDS011;25763;49.972;8.568;2023-03-01T03:01:16;8.20;;;7.70;;
40058;SDS011;25763;49.972;8.568;2023-03-01T03:03:42;9.75;;;8.82;;
40058;SDS011;25763;49.972;8.568;2023-03-01T03:06:08;8.95;;;8.35;;
40058;SDS011;25763;49.972;8.568;2023-03-01T03:08:33;9.82;;;9.07;;
40058;SDS011;25763;49.972;8.568;2023-03-01T03:10:59;9.48;;;8.88;;
40058;SDS011;25763;49.972;8.568;2023-03-01T03:13:24;8.90;;;8.30;;
40058;SDS011;25763;49.972;8.568;2023-03-01T03:15:53;8.88;;;8.27;;
40058;SDS011;25763;49.972;8.568;2023-03-01T03:18:23;9.63;;;9.02;;
40058;SDS011;25763;49.972;8.568;2023-03-01T03:20:51;9.43;;;8.82;;
40058;SDS011;25763;49.972;8.568;2023-03-01T03:23:18;9.43;;;8.82;;
40058;SDS011;25763;49.972;8.568;2023-03-01T03:25:47;10.85;;;10.07;;
40058;SDS011;25763;49.972;8.568;2023-03-01T03:28:14;10.27;;;9.57;;
40058;SDS011;25763;49.972;8.568;2023-03-01T03:30:41;9.65;;;8.90;;
40058;SDS011;25763;49.972;8.568;2023-03-01T03:33:07;10.07;;;9.30;;
40058;SDS011;25763;49.972;8.568;2023-03-01T03:35:38;9.93;;;9.23;;
40058;SDS011;25763;49.972;8.568;2023-03-01T03:38:09;10.32;;;9.43;;
40058;SDS011;25763;49.972;8.568;2023-03-01T03:41:02;9.45;;;8.75;;
40058;SDS011;25763;49.972;8.568;2023-03-01T03:43:30;9.75;;;9.15;;
40058;SDS011;25763;49.972;8.568;2023-03-01T03:45:57;9.50;;;8.90;;
40058;SDS011;25763;49.972;8.568;2023-03-01T03:48:23;9.88;;;9.18;;
40058;SDS011;25763;49.972;8.568;2023-03-01T03:50:53;10.82;;;10.02;;
40058;SDS011;25763;49.972;8.568;2023-03-01T03:53:20;10.30;;;9.57;;
40058;SDS011;25763;49.972;8.568;2023-03-01T03:55:47;9.88;;;9.18;;
40058;SDS011;25763;49.972;8.568;2023-03-01T03:58:14;9.38;;;8.70;;
40058;SDS011;25763;49.972;8.568;2023-03-01T04:00:42;9.02;;;8.43;;
40058;SDS011;25763;49.972;8.568;2023-03-01T04:03:09;9.48;;;8.77;;
40058;SDS011;25763;49.972;8.568;2023-03-01T04:05:35;10.38;;;9.32;;
40058;SDS011;25763;49.972;8.568;2023-03-01T04:08:01;11.57;;;10.63;;
40058;SDS011;25763;49.972;8.568;2023-03-01T04:10:28;10.68;;;9.88;;
40058;SDS011;25763;49.972;8.568;2023-03-01T04:12:54;10.15;;;9.45;;
40058;SDS011;25763;49.972;8.568;2023-03-01T04:15:21;8.93;;;8.32;;
40058;SDS011;25763;49.972;8.568;2023-03-01T04:17:49;9.88;;;9.18;;
40058;SDS011;25763;49.972;8.568;2023-03-01T04:20:17;10.82;;;10.02;;
40058;SDS011;25763;49.972;8.568;2023-03-01T04:22:50;10.32;;;9.63;;
40058;SDS011;25763;49.972;8.568;2023-03-01T04:25:17;9.57;;;8.88;;
40058;SDS011;25763;49.972;8.568;2023-03-01T04:27:42;9.98;;;9.18;;
40058;SDS011;25763;49.972;8.568;2023-03-01T04:30:08;9.95;;;9.25;;
40058;SDS011;25763;49.972;8.568;2023-03-01T04:32:34;12.57;;;9.63;;
40058;SDS011;25763;49.972;8.568;2023-03-01T04:35:00;10.15;;;9.40;;
40058;SDS011;25763;49.972;8.568;2023-03-01T04:37:26;10.18;;;9.38;;
40058;SDS011;25763;49.972;8.568;2023-03-01T04:39:51;10.40;;;9.65;;
40058;SDS011;25763;49.972;8.568;2023-03-01T04:42:17;9.80;;;9.15;;
40058;SDS011;25763;49.972;8.568;2023-03-01T04:44:43;9.50;;;8.85;;
40058;SDS011;25763;49.972;8.568;2023-03-01T04:47:09;9.57;;;8.70;;
40058;SDS011;25763;49.972;8.568;2023-03-01T04:49:34;9.80;;;8.98;;
40058;SDS011;25763;49.972;8.568;2023-03-01T04:52:00;10.50;;;9.80;;
40058;SDS011;25763;49.972;8.568;2023-03-01T04:54:30;10.43;;;9.73;;
40058;SDS011;25763;49.972;8.568;2023-03-01T04:56:59;10.27;;;9.57;;
40058;SDS011;25763;49.972;8.568;2023-03-01T04:59:25;10.98;;;10.02;;
40058;SDS011;25763;49.972;8.568;2023-03-01T05:01:51;9.10;;;8.30;;
40058;SDS011;25763;49.972;8.568;2023-03-01T05:04:20;9.82;;;9.18;;
40058;SDS011;25763;49.972;8.568;2023-03-01T05:06:46;10.52;;;9.75;;
40058;SDS011;25763;49.972;8.568;2023-03-01T05:09:12;10.95;;;10.15;;
40058;SDS011;25763;49.972;8.568;2023-03-01T05:11:37;9.90;;;9.20;;
40058;SDS011;25763;49.972;8.568;2023-03-01T05:14:03;11.10;;;10.35;;
40058;SDS011;25763;49.972;8.568;2023-03-01T05:16:32;10.98;;;10.27;;
40058;SDS011;25763;49.972;8.568;2023-03-01T05:18:58;11.02;;;10.32;;
40058;SDS011;25763;49.972;8.568;2023-03-01T05:21:24;11.13;;;10.23;;
40058;SDS011;25763;49.972;8.568;2023-03-01T05:23:50;10.80;;;10.10;;
40058;SDS011;25763;49.972;8.568;2023-03-01T05:26:16;9.63;;;8.98;;
40058;SDS011;25763;49.972;8.568;2023-03-01T05:28:44;10.52;;;9.63;;
40058;SDS011;25763;49.972;8.568;2023-03-01T05:31:10;10.52;;;9.82;;
40058;SDS011;25763;49.972;8.568;2023-03-01T05:33:39;10.80;;;10.00;;
40058;SDS011;25763;49.972;8.568;2023-03-01T05:36:05;11.70;;;10.88;;
40058;SDS011;25763;49.972;8.568;2023-03-01T05:38:32;10.13;;;9.38;;
40058;SDS011;25763;49.972;8.568;2023-03-01T05:40:58;10.35;;;9.40;;
40058;SDS011;25763;49.972;8.568;2023-03-01T05:43:24;10.82;;;10.02;;
40058;SDS011;25763;49.972;8.568;2023-03-01T05:45:49;10.10;;;9.30;;
40058;SDS011;25763;49.972;8.568;2023-03-01T05:48:14;10.75;;;9.85;;
40058;SDS011;25763;49.972;8.568;2023-03-01T05:50:43;9.90;;;9.15;;
40058;SDS011;25763;49.972;8.568;2023-03-01T05:55:36;11.52;;;10.55;;
40058;SDS011;25763;49.972;8.568;2023-03-01T05:58:03;10.55;;;9.75;;
40058;SDS011;25763;49.972;8.568;2023-03-01T06:00:30;8.88;;;8.27;;
40058;SDS011;25763;49.972;8.568;2023-03-01T06:02:56;10.27;;;9.57;;
40058;SDS011;25763;49.972;8.568;2023-03-01T06:05:23;10.23;;;9.52;;
40058;SDS011;25763;49.972;8.568;2023-03-01T06:07:49;10.38;;;9.68;;
40058;SDS011;25763;49.972;8.568;2023-03-01T06:10:15;9.77;;;9.10;;
40058;SDS011;25763;49.972;8.568;2023-03-01T06:12:42;11.00;;;10.05;;
40058;SDS011;25763;49.972;8.568;2023-03-01T06:15:08;10.35;;;9.55;;
40058;SDS011;25763;49.972;8.568;2023-03-01T06:17:36;10.68;;;9.98;;
40058;SDS011;25763;49.972;8.568;2023-03-01T06:20:09;9.57;;;8.95;;
40058;SDS011;25763;49.972;8.568;2023-03-01T06:22:36;11.20;;;10.50;;
40058;SDS011;25763;49.972;8.568;2023-03-01T06:25:02;10.68;;;9.88;;
40058;SDS011;25763;49.972;8.568;2023-03-01T06:27:28;11.52;;;10.45;;
40058;SDS011;25763;49.972;8.568;2023-03-01T06:29:53;11.30;;;10.38;;
40058;SDS011;25763;49.972;8.568;2023-03-01T06:32:19;10.15;;;9.45;;
40058;SDS011;25763;49.972;8.568;2023-03-01T06:34:44;12.20;;;11.25;;
40058;SDS011;25763;49.972;8.568;2023-03-01T06:37:10;9.27;;;8.63;;
40058;SDS011;25763;49.972;8.568;2023-03-01T06:39:35;10.80;;;10.00;;
40058;SDS011;25763;49.972;8.568;2023-03-01T06:42:01;10.73;;;9.98;;
40058;SDS011;25763;49.972;8.568;2023-03-01T06:44:26;10.00;;;9.30;;
40058;SDS011;25763;49.972;8.568;2023-03-01T06:46:52;11.90;;;11.02;;
40058;SDS011;25763;49.972;8.568;2023-03-01T06:49:18;10.48;;;9.75;;
40058;SDS011;25763;49.972;8.568;2023-03-01T06:51:44;9.65;;;9.05;;
40058;SDS011;25763;49.972;8.568;2023-03-01T06:54:11;10.68;;;9.88;;
40058;SDS011;25763;49.972;8.568;2023-03-01T06:56:36;11.10;;;10.20;;
40058;SDS011;25763;49.972;8.568;2023-03-01T06:59:02;10.20;;;9.50;;
40058;SDS011;25763;49.972;8.568;2023-03-01T07:01:28;9.88;;;9.18;;
40058;SDS011;25763;49.972;8.568;2023-03-01T07:03:53;11.13;;;10.32;;
40058;SDS011;25763;49.972;8.568;2023-03-01T07:06:19;10.55;;;9.85;;
40058;SDS011;25763;49.972;8.568;2023-03-01T07:08:44;10.20;;;9.40;;
40058;SDS011;25763;49.972;8.568;2023-03-01T07:11:09;10.70;;;9.90;;
40058;SDS011;25763;49.972;8.568;2023-03-01T07:13:35;10.75;;;9.95;;
40058;SDS011;25763;49.972;8.568;2023-03-01T07:16:00;9.85;;;9.15;;
40058;SDS011;25763;49.972;8.568;2023-03-01T07:18:26;10.68;;;9.82;;
40058;SDS011;25763;49.972;8.568;2023-03-01T07:20:51;10.65;;;9.85;;
40058;SDS011;25763;49.972;8.568;2023-03-01T07:23:16;10.15;;;9.35;;
40058;SDS011;25763;49.972;8.568;2023-03-01T07:25:42;10.38;;;9.68;;
40058;SDS011;25763;49.972;8.568;2023-03-01T07:28:07;10.63;;;9.82;;
40058;SDS011;25763;49.972;8.568;2023-03-01T07:30:33;10.57;;;9.65;;
40058;SDS011;25763;49.972;8.568;2023-03-01T07:32:58;11.63;;;10.82;;
40058;SDS011;25763;49.972;8.568;2023-03-01T07:35:27;10.25;;;9.55;;
40058;SDS011;25763;49.972;8.568;2023-03-01T07:37:52;9.90;;;9.20;;
40058;SDS011;25763;49.972;8.568;2023-03-01T07:40:18;10.27;;;9.52;;
40058;SDS011;25763;49.972;8.568;2023-03-01T07:42:44;11.50;;;10.77;;
40058;SDS011;25763;49.972;8.568;2023-03-01T07:45:10;11.23;;;10.43;;
40058;SDS011;25763;49.972;8.568;2023-03-01T07:47:36;10.32;;;9.63;;
40058;SDS011;25763;49.972;8.568;2023-03-01T07:50:02;12.00;;;11.23;;
40058;SDS011;25763;49.972;8.568;2023-03-01T07:52:28;11.63;;;10.82;;
40058;SDS011;25763;49.972;8.568;2023-03-01T07:54:55;11.68;;;10.80;;
40058;SDS011;25763;49.972;8.568;2023-03-01T07:57:21;10.30;;;9.60;;
40058;SDS011;25763;49.972;8.568;2023-03-01T07:59:46;10.80;;;10.10;;
40058;SDS011;25763;49.972;8.568;2023-03-01T08:02:11;10.75;;;10.05;;
40058;SDS011;25763;49.972;8.568;2023-03-01T08:04:37;10.50;;;9.75;;
40058;SDS011;25763;49.972;8.568;2023-03-01T08:07:04;11.93;;;10.93;;
40058;SDS011;25763;49.972;8.568;2023-03-01T08:09:30;11.50;;;10.70;;
40058;SDS011;25763;49.972;8.568;2023-03-01T08:11:56;10.15;;;9.50;;
40058;SDS011;25763;49.972;8.568;2023-03-01T08:14:24;10.82;;;10.13;;
40058;SDS011;25763;49.972;8.568;2023-03-01T08:16:49;11.23;;;10.52;;
40058;SDS011;25763;49.972;8.568;2023-03-01T08:19:15;11.75;;;10.75;;
40058;SDS011;25763;49.972;8.568;2023-03-01T08:21:40;10.93;;;10.10;;
40058;SDS011;25763;49.972;8.568;2023-03-01T08:24:06;10.95;;;10.25;;
40058;SDS011;25763;49.972;8.568;2023-03-01T08:26:32;12.00;;;11.13;;
40058;SDS011;25763;49.972;8.568;2023-03-01T08:28:59;10.98;;;10.25;;
40058;SDS011;25763;49.972;8.568;2023-03-01T08:31:32;11.07;;;10.27;;
40058;SDS011;25763;49.972;8.568;2023-03-01T08:34:00;15.55;;;11.35;;
40058;SDS011;25763;49.972;8.568;2023-03-01T08:36:32;12.68;;;11.77;;
40058;SDS011;25763;49.972;8.568;2023-03-01T08:39:00;10.00;;;9.30;;
40058;SDS011;25763;49.972;8.568;2023-03-01T08:41:26;9.73;;;9.13;;
40058;SDS011;25763;49.972;8.568;2023-03-01T08:43:52;9.93;;;9.25;;
40058;SDS011;25763;49.972;8.568;2023-03-01T08:46:23;9.98;;;9.32;;
40058;SDS011;25763;49.972;8.568;2023-03-01T08:48:49;11.07;;;10.27;;
40058;SDS011;25763;49.972;8.568;2023-03-01T08:51:16;11.07;;;10.23;;
40058;SDS011;25763;49.972;8.568;2023-03-01T08:53:42;10.63;;;9.93;;
40058;SDS011;25763;49.972;8.568;2023-03-01T08:56:08;11.23;;;10.50;;
40058;SDS011;25763;49.972;8.568;2023-03-01T08:58:35;11.82;;;11.00;;
40058;SDS011;25763;49.972;8.568;2023-03-01T09:01:04;11.32;;;10.52;;
40058;SDS011;25763;49.972;8.568;2023-03-01T09:03:32;11.70;;;10.90;;
40058;SDS011;25763;49.972;8.568;2023-03-01T09:06:00;12.65;;;11.85;;
40058;SDS011;25763;49.972;8.568;2023-03-01T09:08:27;12.85;;;11.95;;
40058;SDS011;25763;49.972;8.568;2023-03-01T09:10:52;11.27;;;10.57;;
40058;SDS011;25763;49.972;8.568;2023-03-01T09:13:18;11.98;;;11.20;;
40058;SDS011;25763;49.972;8.568;2023-03-01T09:15:43;14.02;;;12.48;;
40058;SDS011;25763;49.972;8.568;2023-03-01T09:18:08;12.35;;;11.35;;
40058;SDS011;25763;49.972;8.568;2023-03-01T09:20:34;12.32;;;11.55;;
40058;SDS011;25763;49.972;8.568;2023-03-01T09:22:59;12.60;;;11.70;;
40058;SDS011;25763;49.972;8.568;2023-03-01T09:25:25;12.73;;;11.82;;
40058;SDS011;25763;49.972;8.568;2023-03-01T09:27:51;11.98;;;11.18;;
40058;SDS011;25763;49.972;8.568;2023-03-01T09:30:17;13.57;;;12.18;;
40058;SDS011;25763;49.972;8.568;2023-03-01T09:32:42;12.98;;;11.95;;
40058;SDS011;25763;49.972;8.568;2023-03-01T09:35:09;11.93;;;11.13;;
40058;SDS011;25763;49.972;8.568;2023-03-01T09:37:35;14.00;;;12.98;;
40058;SDS011;25763;49.972;8.568;2023-03-01T09:40:02;12.02;;;11.23;;
40058;SDS011;25763;49.972;8.568;2023-03-01T09:42:31;12.27;;;11.48;;
40058;SDS011;25763;49.972;8.568;2023-03-01T09:45:03;13.77;;;12.93;;
40058;SDS011;25763;49.972;8.568;2023-03-01T09:47:31;14.48;;;13.48;;
40058;SDS011;25763;49.972;8.568;2023-03-01T09:55:12;14.93;;;13.93;;
40058;SDS011;25763;49.972;8.568;2023-03-01T09:57:49;16.55;;;15.18;;
40058;SDS011;25763;49.972;8.568;2023-03-01T10:00:42;13.98;;;13.05;;
40058;SDS011;25763;49.972;8.568;2023-03-01T10:05:52;14.75;;;13.75;;
40058;SDS011;25763;49.972;8.568;2023-03-01T10:08:28;14.07;;;13.18;;
40058;SDS011;25763;49.972;8.568;2023-03-01T10:11:01;14.40;;;13.40;;
40058;SDS011;25763;49.972;8.568;2023-03-01T10:14:31;15.30;;;14.05;;
40058;SDS011;25763;49.972;8.568;2023-03-01T10:16:43;12.65;;;11.82;;
40058;SDS011;25763;49.972;8.568;2023-03-01T10:19:25;12.55;;;11.75;;
40058;SDS011;25763;49.972;8.568;2023-03-01T10:22:18;12.98;;;12.10;;
40058;SDS011;25763;49.972;8.568;2023-03-01T10:24:48;15.18;;;14.07;;
40058;SDS011;25763;49.972;8.568;2023-03-01T10:27:24;12.35;;;11.55;;
40058;SDS011;25763;49.972;8.568;2023-03-01T10:32:48;15.05;;;13.98;;
40058;SDS011;25763;49.972;8.568;2023-03-01T10:35:17;14.30;;;13.25;;
40058;SDS011;25763;49.972;8.568;2023-03-01T10:40:35;12.90;;;11.90;;
40058;SDS011;25763;49.972;8.568;2023-03-01T10:43:02;14.25;;;13.10;;
40058;SDS011;25763;49.972;8.568;2023-03-01T10:48:12;15.60;;;14.43;;
40058;SDS011;25763;49.972;8.568;2023-03-01T10:50:50;13.43;;;12.40;;
40058;SDS011;25763;49.972;8.568;2023-03-01T10:53:32;12.70;;;11.90;;
40058;SDS011;25763;49.972;8.568;2023-03-01T10:56:01;12.73;;;11.77;;
40058;SDS011;25763;49.972;8.568;2023-03-01T10:58:29;13.02;;;12.23;;
40058;SDS011;25763;49.972;8.568;2023-03-01T11:01:02;14.20;;;13.02;;
40058;SDS011;25763;49.972;8.568;2023-03-01T11:04:02;13.82;;;12.85;;
40058;SDS011;25763;49.972;8.568;2023-03-01T11:06:28;12.80;;;12.00;;
40058;SDS011;25763;49.972;8.568;2023-03-01T11:08:54;13.90;;;12.98;;
40058;SDS011;25763;49.972;8.568;2023-03-01T11:11:21;15.63;;;14.45;;
40058;SDS011;25763;49.972;8.568;2023-03-01T11:14:06;13.80;;;12.90;;
40058;SDS011;25763;49.972;8.568;2023-03-01T11:16:38;15.35;;;14.25;;
40058;SDS011;25763;49.972;8.568;2023-03-01T11:21:34;14.30;;;13.40;;
40058;SDS011;25763;49.972;8.568;2023-03-01T11:24:03;13.55;;;12.65;;
40058;SDS011;25763;49.972;8.568;2023-03-01T11:26:34;13.82;;;12.93;;
40058;SDS011;25763;49.972;8.568;2023-03-01T11:29:04;14.40;;;13.40;;
40058;SDS011;25763;49.972;8.568;2023-03-01T11:31:37;14.13;;;13.25;;
40058;SDS011;25763;49.972;8.568;2023-03-01T11:34:12;15.07;;;14.15;;
40058;SDS011;25763;49.972;8.568;2023-03-01T11:36:44;14.57;;;13.57;;
40058;SDS011;25763;49.972;8.568;2023-03-01T11:41:52;15.75;;;14.45;;
40058;SDS011;25763;49.972;8.568;2023-03-01T11:44:29;14.10;;;13.20;;
40058;SDS011;25763;49.972;8.568;2023-03-01T11:47:14;14.25;;;13.35;;
40058;SDS011;25763;49.972;8.568;2023-03-01T11:50:01;16.42;;;15.38;;
40058;SDS011;25763;49.972;8.568;2023-03-01T11:55:22;13.90;;;13.00;;
40058;SDS011;25763;49.972;8.568;2023-03-01T12:06:22;16.08;;;14.98;;
40058;SDS011;25763;49.972;8.568;2023-03-01T12:12:42;13.98;;;13.07;;
40058;SDS011;25763;49.972;8.568;2023-03-01T12:18:12;14.73;;;13.73;;
40058;SDS011;25763;49.972;8.568;2023-03-01T12:31:15;17.45;;;16.35;;
40058;SDS011;25763;49.972;8.568;2023-03-01T12:50:24;17.70;;;16.65;;
40058;SDS011;25763;49.972;8.568;2023-03-01T12:53:04;16.83;;;15.82;;
40058;SDS011;25763;49.972;8.568;2023-03-01T12:55:39;16.88;;;15.85;;
40058;SDS011;25763;49.972;8.568;2023-03-01T12:58:11;17.27;;;16.17;;
40058;SDS011;25763;49.972;8.568;2023-03-01T13:06:12;16.70;;;15.55;;
40058;SDS011;25763;49.972;8.568;2023-03-01T13:08:42;15.05;;;14.15;;
40058;SDS011;25763;49.972;8.568;2023-03-01T13:11:19;17.08;;;15.95;;
40058;SDS011;25763;49.972;8.568;2023-03-01T13:13:46;16.75;;;15.75;;
40058;SDS011;25763;49.972;8.568;2023-03-01T13:19:08;15.57;;;14.68;;
40058;SDS011;25763;49.972;8.568;2023-03-01T13:21:38;15.95;;;15.05;;
40058;SDS011;25763;49.972;8.568;2023-03-01T13:24:04;16.23;;;15.20;;
40058;SDS011;25763;49.972;8.568;2023-03-01T13:26:29;16.95;;;15.85;;
40058;SDS011;25763;49.972;8.568;2023-03-01T13:28:58;16.73;;;15.73;;
40058;SDS011;25763;49.972;8.568;2023-03-01T13:33:54;16.15;;;15.23;;
40058;SDS011;25763;49.972;8.568;2023-03-01T13:46:47;16.33;;;15.23;;
40058;SDS011;25763;49.972;8.568;2023-03-01T13:49:15;17.63;;;16.45;;
40058;SDS011;25763;49.972;8.568;2023-03-01T13:51:46;15.50;;;14.45;;
40058;SDS011;25763;49.972;8.568;2023-03-01T13:54:12;15.73;;;14.45;;
40058;SDS011;25763;49.972;8.568;2023-03-01T13:56:40;14.38;;;13.45;;
40058;SDS011;25763;49.972;8.568;2023-03-01T13:59:06;16.33;;;15.27;;
40058;SDS011;25763;49.972;8.568;2023-03-01T14:01:51;16.67;;;15.57;;
40058;SDS011;25763;49.972;8.568;2023-03-01T14:04:22;15.77;;;14.48;;
40058;SDS011;25763;49.972;8.568;2023-03-01T14:06:50;16.83;;;15.80;;
40058;SDS011;25763;49.972;8.568;2023-03-01T14:09:20;14.50;;;13.60;;
40058;SDS011;25763;49.972;8.568;2023-03-01T14:14:40;17.50;;;16.17;;
40058;SDS011;25763;49.972;8.568;2023-03-01T14:19:59;17.52;;;16.45;;
40058;SDS011;25763;49.972;8.568;2023-03-01T14:22:30;19.52;;;17.90;;
40058;SDS011;25763;49.972;8.568;2023-03-01T14:24:59;18.25;;;17.15;;
40058;SDS011;25763;49.972;8.568;2023-03-01T14:27:35;17.08;;;15.98;;
40058;SDS011;25763;49.972;8.568;2023-03-01T14:30:10;17.67;;;16.60;;
40058;SDS011;25763;49.972;8.568;2023-03-01T14:32:39;17.23;;;16.13;;
40058;SDS011;25763;49.972;8.568;2023-03-01T14:35:21;16.52;;;15.43;;
40058;SDS011;25763;49.972;8.568;2023-03-01T14:37:48;16.25;;;15.20;;
40058;SDS011;25763;49.972;8.568;2023-03-01T14:40:22;15.43;;;14.52;;
40058;SDS011;25763;49.972;8.568;2023-03-01T14:42:49;16.10;;;15.10;;
40058;SDS011;25763;49.972;8.568;2023-03-01T14:45:15;16.52;;;15.52;;
40058;SDS011;25763;49.972;8.568;2023-03-01T14:47:43;16.95;;;15.85;;
40058;SDS011;25763;49.972;8.568;2023-03-01T14:52:49;17.42;;;16.33;;
40058;SDS011;25763;49.972;8.568;2023-03-01T14:55:18;19.17;;;17.77;;
40058;SDS011;25763;49.972;8.568;2023-03-01T14:57:49;18.05;;;16.80;;
40058;SDS011;25763;49.972;8.568;2023-03-01T15:00:20;15.98;;;14.98;;
40058;SDS011;25763;49.972;8.568;2023-03-01T15:02:48;18.42;;;17.23;;
40058;SDS011;25763;49.972;8.568;2023-03-01T15:05:15;16.30;;;15.30;;
40058;SDS011;25763;49.972;8.568;2023-03-01T15:07:50;15.27;;;14.35;;
40058;SDS011;25763;49.972;8.568;2023-03-01T15:10:21;16.83;;;15.82;;
40058;SDS011;25763;49.972;8.568;2023-03-01T15:12:49;18.55;;;16.85;;
40058;SDS011;25763;49.972;8.568;2023-03-01T15:18:05;15.50;;;14.50;;
40058;SDS011;25763;49.972;8.568;2023-03-01T15:20:39;16.23;;;15.20;;
40058;SDS011;25763;49.972;8.568;2023-03-01T15:23:04;17.13;;;16.02;;
40058;SDS011;25763;49.972;8.568;2023-03-01T15:25:30;17.50;;;16.40;;
40058;SDS011;25763;49.972;8.568;2023-03-01T15:27:57;16.73;;;15.73;;
40058;SDS011;25763;49.972;8.568;2023-03-01T15:30:34;17.00;;;15.88;;
40058;SDS011;25763;49.972;8.568;2023-03-01T15:35:51;16.58;;;15.57;;
40058;SDS011;25763;49.972;8.568;2023-03-01T15:40:55;16.75;;;15.75;;
40058;SDS011;25763;49.972;8.568;2023-03-01T15:46:17;14.40;;;13.48;;
40058;SDS011;25763;49.972;8.568;2023-03-01T15:48:48;14.85;;;14.00;;
40058;SDS011;25763;49.972;8.568;2023-03-01T15:51:17;16.33;;;15.23;;
40058;SDS011;25763;49.972;8.568;2023-03-01T15:53:49;16.77;;;15.48;;
40058;SDS011;25763;49.972;8.568;2023-03-01T15:56:17;15.02;;;14.10;;
40058;SDS011;25763;49.972;8.568;2023-03-01T15:58:42;15.85;;;14.75;;
40058;SDS011;25763;49.972;8.568;2023-03-01T16:01:12;16.83;;;15.63;;
40058;SDS011;25763;49.972;8.568;2023-03-01T16:03:39;15.90;;;14.90;;
40058;SDS011;25763;49.972;8.568;2023-03-01T16:06:04;15.02;;;14.10;;
40058;SDS011;25763;49.972;8.568;2023-03-01T16:08:30;15.98;;;14.88;;
40058;SDS011;25763;49.972;8.568;2023-03-01T16:10:55;14.82;;;13.73;;
40058;SDS011;25763;49.972;8.568;2023-03-01T16:13:21;17.92;;;16.15;;
40058;SDS011;25763;49.972;8.568;2023-03-01T16:15:46;14.63;;;13.63;;
40058;SDS011;25763;49.972;8.568;2023-03-01T16:18:12;13.90;;;13.07;;
40058;SDS011;25763;49.972;8.568;2023-03-01T16:20:37;14.88;;;13.55;;
40058;SDS011;25763;49.972;8.568;2023-03-01T16:23:04;14.15;;;13.25;;
40058;SDS011;25763;49.972;8.568;2023-03-01T16:25:31;14.00;;;13.10;;
40058;SDS011;25763;49.972;8.568;2023-03-01T16:27:57;14.35;;;13.45;;
40058;SDS011;25763;49.972;8.568;2023-03-01T16:30:25;14.65;;;13.75;;
40058;SDS011;25763;49.972;8.568;2023-03-01T16:32:51;15.10;;;14.20;;
40058;SDS011;25763;49.972;8.568;2023-03-01T16:35:18;15.18;;;14.07;;